createdAt,value
2022-10-30T00:01:04.299Z,0.00
2022-10-30T00:02:04.440Z,0.00
2022-10-30T00:04:08.233Z,0.00
2022-10-30T00:05:08.190Z,0.00
2022-10-30T00:07:12.151Z,0.00
2022-10-30T00:08:12.131Z,0.00
2022-10-30T00:10:16.100Z,0.00
2022-10-30T00:11:16.068Z,0.00
2022-10-30T00:13:20.034Z,0.00
2022-10-30T00:14:20.008Z,0.00
2022-10-30T00:16:23.979Z,0.00
2022-10-30T00:17:23.948Z,0.00
2022-10-30T00:19:27.921Z,0.00
2022-10-30T00:20:27.884Z,0.00
2022-10-30T00:22:31.858Z,0.00
2022-10-30T00:23:31.818Z,0.00
2022-10-30T00:25:35.787Z,0.00
2022-10-30T00:26:35.755Z,0.00
2022-10-30T00:28:28.627Z,0.00
2022-10-30T00:29:28.613Z,0.00
2022-10-30T00:31:32.575Z,0.00
2022-10-30T00:32:32.539Z,0.00
2022-10-30T00:34:36.515Z,0.00
2022-10-30T00:35:36.491Z,0.00
2022-10-30T00:37:40.450Z,0.00
2022-10-30T00:38:40.419Z,0.00
2022-10-30T00:40:44.386Z,0.00
2022-10-30T00:41:44.348Z,0.00
2022-10-30T00:43:48.310Z,0.00
2022-10-30T00:44:48.288Z,0.00
2022-10-30T00:46:52.244Z,0.00
2022-10-30T00:47:52.215Z,0.00
2022-10-30T00:49:56.173Z,0.00
2022-10-30T00:50:56.141Z,0.00
2022-10-30T00:53:00.393Z,0.00
2022-10-30T00:54:00.072Z,0.00
2022-10-30T00:56:04.036Z,0.00
2022-10-30T00:57:04.009Z,0.00
2022-10-30T00:58:56.930Z,0.00
2022-10-30T00:59:56.896Z,0.00
2022-10-30T01:02:01.063Z,0.00
2022-10-30T01:03:01.327Z,0.00
2022-10-30T01:05:04.822Z,0.00
2022-10-30T01:06:04.760Z,0.00
2022-10-30T01:08:08.733Z,0.00
2022-10-30T01:09:08.788Z,0.00
2022-10-30T01:11:12.664Z,0.00
2022-10-30T01:12:12.631Z,0.00
2022-10-30T01:14:16.598Z,0.00
2022-10-30T01:15:16.566Z,0.00
2022-10-30T01:17:20.544Z,0.00
2022-10-30T01:18:20.505Z,0.00
2022-10-30T01:20:24.481Z,0.00
2022-10-30T01:21:24.429Z,0.00
2022-10-30T01:23:28.402Z,0.00
2022-10-30T01:24:28.368Z,0.00
2022-10-30T01:26:32.365Z,0.00
2022-10-30T01:27:32.281Z,0.00
2022-10-30T01:29:36.254Z,0.00
2022-10-30T01:30:36.218Z,0.00
2022-10-30T01:32:40.205Z,0.00
2022-10-30T01:33:40.148Z,0.00
2022-10-30T01:35:45.073Z,0.00
2022-10-30T01:36:44.071Z,0.00
2022-10-30T01:38:36.969Z,0.00
2022-10-30T01:39:36.934Z,0.00
2022-10-30T01:41:40.920Z,0.00
2022-10-30T01:42:40.883Z,0.00
2022-10-30T01:44:44.841Z,0.00
2022-10-30T01:45:44.820Z,0.00
2022-10-30T01:47:48.790Z,0.00
2022-10-30T01:48:48.753Z,0.00
2022-10-30T01:50:52.722Z,0.00
2022-10-30T01:51:52.683Z,0.00
2022-10-30T01:53:56.655Z,0.00
2022-10-30T01:54:56.611Z,0.00
2022-10-30T01:57:00.578Z,0.00
2022-10-30T01:58:00.546Z,0.00
2022-10-30T02:00:04.552Z,0.00
2022-10-30T02:01:04.525Z,0.00
2022-10-30T02:03:08.446Z,0.00
2022-10-30T02:04:08.410Z,0.00
2022-10-30T02:06:12.378Z,0.00
2022-10-30T02:07:12.347Z,0.00
2022-10-30T02:09:16.308Z,0.00
2022-10-30T02:10:16.281Z,0.00
2022-10-30T02:12:20.243Z,0.00
2022-10-30T02:13:20.209Z,0.00
2022-10-30T02:15:24.174Z,0.00
2022-10-30T02:16:24.141Z,0.00
2022-10-30T02:18:17.015Z,0.00
2022-10-30T02:19:16.990Z,0.00
2022-10-30T02:21:20.942Z,0.00
2022-10-30T02:22:20.974Z,0.00
2022-10-30T02:24:24.871Z,0.00
2022-10-30T02:25:24.850Z,0.00
2022-10-30T02:27:28.834Z,0.00
2022-10-30T02:28:28.784Z,0.00
2022-10-30T02:30:32.768Z,0.00
2022-10-30T02:31:32.716Z,0.00
2022-10-30T02:33:36.686Z,0.00
2022-10-30T02:34:36.647Z,0.00
2022-10-30T02:36:40.624Z,0.00
2022-10-30T02:37:40.580Z,0.00
2022-10-30T02:39:44.547Z,0.00
2022-10-30T02:40:44.507Z,0.00
2022-10-30T02:42:48.484Z,0.00
2022-10-30T02:43:48.436Z,0.00
2022-10-30T02:45:52.411Z,0.00
2022-10-30T02:46:52.374Z,0.00
2022-10-30T02:48:45.271Z,0.00
2022-10-30T02:49:45.236Z,0.00
2022-10-30T02:51:49.221Z,0.00
2022-10-30T02:52:49.168Z,0.00
2022-10-30T02:54:53.123Z,0.00
2022-10-30T02:55:53.097Z,0.00
2022-10-30T02:57:57.071Z,0.00
2022-10-30T02:58:57.036Z,0.00
2022-10-30T03:01:01.055Z,0.00
2022-10-30T03:02:01.081Z,0.00
2022-10-30T03:04:04.936Z,0.00
2022-10-30T03:05:04.898Z,0.00
2022-10-30T03:07:08.880Z,0.00
2022-10-30T03:08:08.828Z,0.00
2022-10-30T03:10:12.797Z,0.00
2022-10-30T03:11:12.758Z,0.00
2022-10-30T03:13:16.731Z,0.00
2022-10-30T03:14:16.696Z,0.00
2022-10-30T03:16:20.669Z,0.00
2022-10-30T03:17:20.633Z,0.00
2022-10-30T03:19:24.588Z,0.00
2022-10-30T03:20:24.554Z,0.00
2022-10-30T03:22:28.522Z,0.00
2022-10-30T03:23:28.483Z,0.00
2022-10-30T03:25:32.462Z,0.00
2022-10-30T03:26:32.412Z,0.00
2022-10-30T03:28:25.305Z,0.00
2022-10-30T03:29:25.279Z,0.00
2022-10-30T03:31:29.343Z,0.00
2022-10-30T03:32:29.311Z,0.00
2022-10-30T03:34:33.252Z,0.00
2022-10-30T03:35:33.231Z,0.00
2022-10-30T03:37:37.203Z,0.00
2022-10-30T03:38:37.155Z,0.00
2022-10-30T03:40:41.147Z,0.00
2022-10-30T03:41:41.085Z,0.00
2022-10-30T03:43:45.044Z,0.00
2022-10-30T03:44:45.020Z,0.00
2022-10-30T03:45:45.004Z,0.00
2022-10-30T03:46:44.989Z,0.00
2022-10-30T03:47:44.972Z,0.00
2022-10-30T03:48:44.953Z,0.00
2022-10-30T03:49:44.937Z,0.00
2022-10-30T03:50:44.919Z,0.00
2022-10-30T03:51:44.906Z,0.00
2022-10-30T03:52:44.891Z,0.00
2022-10-30T03:53:44.873Z,0.00
2022-10-30T03:54:44.854Z,0.00
2022-10-30T03:55:44.839Z,0.00
2022-10-30T03:56:44.823Z,0.00
2022-10-30T03:57:44.805Z,0.00
2022-10-30T03:58:44.788Z,0.00
2022-10-30T03:59:44.775Z,0.00
2022-10-30T04:00:44.767Z,0.00
2022-10-30T04:01:44.967Z,0.00
2022-10-30T04:02:44.724Z,0.00
2022-10-30T04:03:44.712Z,0.00
2022-10-30T04:04:44.693Z,0.00
2022-10-30T04:05:44.678Z,0.00
2022-10-30T04:06:44.658Z,0.00
2022-10-30T04:07:44.643Z,0.00
2022-10-30T04:08:44.632Z,0.00
2022-10-30T04:09:44.609Z,0.00
2022-10-30T04:10:44.679Z,0.00
2022-10-30T04:11:44.577Z,0.00
2022-10-30T04:12:44.559Z,0.00
2022-10-30T04:13:44.548Z,0.00
2022-10-30T04:14:44.529Z,0.00
2022-10-30T04:15:44.511Z,0.00
2022-10-30T04:16:44.493Z,0.00
2022-10-30T04:17:44.480Z,0.00
2022-10-30T04:18:44.461Z,0.00
2022-10-30T04:19:44.446Z,0.00
2022-10-30T04:20:44.429Z,0.00
2022-10-30T04:21:44.415Z,0.00
2022-10-30T04:22:44.395Z,0.00
2022-10-30T04:23:44.380Z,0.00
2022-10-30T04:24:44.361Z,0.00
2022-10-30T04:25:44.350Z,0.00
2022-10-30T04:26:44.328Z,0.00
2022-10-30T04:27:44.315Z,0.00
2022-10-30T04:28:44.298Z,0.00
2022-10-30T04:29:44.280Z,0.00
2022-10-30T04:30:44.267Z,0.00
2022-10-30T04:31:44.251Z,0.00
2022-10-30T04:32:44.233Z,0.00
2022-10-30T04:33:44.229Z,0.00
2022-10-30T04:34:44.198Z,0.00
2022-10-30T04:35:44.190Z,0.00
2022-10-30T04:36:44.176Z,0.00
2022-10-30T04:37:44.158Z,0.00
2022-10-30T04:38:44.132Z,0.00
2022-10-30T04:39:46.361Z,0.00
2022-10-30T04:40:44.101Z,0.00
2022-10-30T04:41:44.085Z,0.00
2022-10-30T04:42:44.073Z,0.00
2022-10-30T04:43:44.053Z,0.00
2022-10-30T04:44:44.037Z,0.00
2022-10-30T04:45:44.020Z,0.00
2022-10-30T04:46:44.002Z,0.00
2022-10-30T04:47:43.988Z,0.00
2022-10-30T04:48:43.976Z,0.00
2022-10-30T04:49:43.952Z,0.00
2022-10-30T04:50:43.948Z,0.00
2022-10-30T04:51:43.919Z,0.00
2022-10-30T04:52:43.909Z,0.00
2022-10-30T04:53:43.891Z,0.00
2022-10-30T04:54:43.881Z,0.00
2022-10-30T04:55:43.857Z,0.00
2022-10-30T04:56:43.849Z,0.00
2022-10-30T04:57:43.822Z,0.00
2022-10-30T04:58:43.812Z,0.00
2022-10-30T04:59:43.791Z,0.00
2022-10-30T05:00:43.794Z,0.00
2022-10-30T05:01:43.863Z,0.00
2022-10-30T05:03:43.725Z,0.00
2022-10-30T05:04:43.764Z,0.00
2022-10-30T05:05:43.692Z,0.00
2022-10-30T05:06:43.680Z,0.00
2022-10-30T05:07:43.702Z,0.00
2022-10-30T05:08:43.646Z,0.00
2022-10-30T05:09:43.636Z,0.00
2022-10-30T05:10:43.617Z,0.00
2022-10-30T05:11:43.600Z,0.00
2022-10-30T05:12:43.599Z,0.00
2022-10-30T05:13:43.679Z,0.00
2022-10-30T07:25:36.164Z,744.00
2022-10-30T07:26:36.124Z,784.00
2022-10-30T07:28:40.571Z,772.00
2022-10-30T07:29:40.532Z,776.00
2022-10-30T07:31:57.473Z,912.00
2022-10-30T07:32:44.691Z,976.00
2022-10-30T07:34:48.827Z,1124.00
2022-10-30T07:35:48.775Z,1104.00
2022-10-30T07:37:52.924Z,1300.00
2022-10-30T07:38:52.901Z,1316.00
2022-10-30T07:39:52.886Z,1344.00
2022-10-30T07:40:52.872Z,1360.00
2022-10-30T07:41:52.852Z,1388.00
2022-10-30T07:42:52.844Z,1420.00
2022-10-30T07:43:52.824Z,1460.00
2022-10-30T07:44:52.804Z,1492.00
2022-10-30T07:45:52.783Z,1524.00
2022-10-30T07:46:52.772Z,1568.00
2022-10-30T07:47:52.758Z,1604.00
2022-10-30T07:48:52.741Z,1580.00
2022-10-30T07:49:52.720Z,1304.00
2022-10-30T07:50:52.709Z,1356.00
2022-10-30T07:51:52.688Z,1296.00
2022-10-30T07:52:52.673Z,1276.00
2022-10-30T07:53:52.658Z,1316.00
2022-10-30T07:54:52.652Z,1328.00
2022-10-30T07:55:52.624Z,1324.00
2022-10-30T07:56:52.616Z,1260.00
2022-10-30T07:57:52.593Z,1072.00
2022-10-30T07:58:52.581Z,1024.00
2022-10-30T07:59:52.565Z,1064.00
2022-10-30T08:00:52.556Z,1124.00
2022-10-30T08:01:52.611Z,1036.00
2022-10-30T08:02:52.582Z,1076.00
2022-10-30T08:03:52.505Z,1224.00
2022-10-30T08:04:52.484Z,1272.00
2022-10-30T08:05:52.469Z,1232.00
2022-10-30T08:06:52.461Z,1356.00
2022-10-30T08:07:52.437Z,1432.00
2022-10-30T08:08:52.427Z,1460.00
2022-10-30T08:09:52.407Z,1340.00
2022-10-30T08:10:52.395Z,1288.00
2022-10-30T08:11:52.376Z,1168.00
2022-10-30T08:12:52.362Z,1164.00
2022-10-30T08:13:52.347Z,1200.00
2022-10-30T08:14:52.332Z,1224.00
2022-10-30T08:15:52.315Z,1296.00
2022-10-30T08:16:52.305Z,1456.00
2022-10-30T08:17:52.284Z,1688.00
2022-10-30T08:18:52.270Z,2052.00
2022-10-30T08:19:52.251Z,2364.00
2022-10-30T08:20:52.241Z,2632.00
2022-10-30T08:21:54.859Z,2844.00
2022-10-30T08:22:52.215Z,3012.00
2022-10-30T08:23:52.193Z,3092.00
2022-10-30T08:24:52.180Z,3228.00
2022-10-30T08:25:52.164Z,3372.00
2022-10-30T08:26:52.146Z,3500.00
2022-10-30T08:27:52.131Z,3536.00
2022-10-30T08:28:52.119Z,3480.00
2022-10-30T08:29:52.100Z,3268.00
2022-10-30T08:30:52.089Z,3376.00
2022-10-30T08:31:52.075Z,3516.00
2022-10-30T08:32:52.058Z,3604.00
2022-10-30T08:33:52.048Z,3628.00
2022-10-30T08:34:52.027Z,3620.00
2022-10-30T08:35:52.024Z,3684.00
2022-10-30T08:36:52.003Z,3648.00
2022-10-30T08:37:51.985Z,3648.00
2022-10-30T08:38:51.971Z,3636.00
2022-10-30T08:39:51.956Z,3656.00
2022-10-30T08:40:51.948Z,3448.00
2022-10-30T08:41:51.925Z,3412.00
2022-10-30T08:42:51.933Z,3484.00
2022-10-30T08:43:51.900Z,3588.00
2022-10-30T08:44:51.886Z,3708.00
2022-10-30T08:45:51.873Z,3908.00
2022-10-30T08:46:51.857Z,4044.00
2022-10-30T08:47:51.842Z,4020.00
2022-10-30T08:48:51.830Z,3876.00
2022-10-30T08:49:51.815Z,3892.00
2022-10-30T08:50:51.802Z,4108.00
2022-10-30T08:51:51.786Z,4224.00
2022-10-30T08:52:53.888Z,4296.00
2022-10-30T08:53:51.766Z,4312.00
2022-10-30T08:54:51.749Z,4400.00
2022-10-30T08:55:51.733Z,4508.00
2022-10-30T08:56:51.720Z,4500.00
2022-10-30T08:57:51.707Z,4580.00
2022-10-30T08:58:51.694Z,4796.00
2022-10-30T08:59:51.680Z,5000.00
2022-10-30T09:00:53.125Z,5008.00
2022-10-30T09:01:51.734Z,4896.00
2022-10-30T09:02:51.642Z,4940.00
2022-10-30T09:03:51.631Z,5132.00
2022-10-30T09:04:51.685Z,5212.00
2022-10-30T09:05:51.604Z,5276.00
2022-10-30T09:06:51.596Z,5288.00
2022-10-30T09:07:51.586Z,5224.00
2022-10-30T09:08:51.571Z,5296.00
2022-10-30T09:09:51.558Z,5328.00
2022-10-30T09:10:51.542Z,5420.00
2022-10-30T09:11:51.531Z,5492.00
2022-10-30T09:12:51.520Z,5452.00
2022-10-30T09:13:51.504Z,5476.00
2022-10-30T09:14:51.494Z,5504.00
2022-10-30T09:15:51.482Z,5572.00
2022-10-30T09:16:51.471Z,5592.00
2022-10-30T09:17:51.457Z,5608.00
2022-10-30T09:18:51.452Z,5264.00
2022-10-30T09:19:51.437Z,5620.00
2022-10-30T09:20:51.426Z,5680.00
2022-10-30T09:21:51.412Z,5644.00
2022-10-30T09:22:51.403Z,5672.00
2022-10-30T09:23:51.388Z,5612.00
2022-10-30T09:24:51.380Z,5636.00
2022-10-30T09:25:51.369Z,5692.00
2022-10-30T09:26:51.360Z,5616.00
2022-10-30T09:27:51.346Z,5580.00
2022-10-30T09:28:51.338Z,5420.00
2022-10-30T09:29:51.323Z,5056.00
2022-10-30T09:30:51.318Z,5460.00
2022-10-30T09:31:51.362Z,5408.00
2022-10-30T09:32:54.939Z,5296.00
2022-10-30T09:33:51.285Z,5536.00
2022-10-30T09:34:51.274Z,5784.00
2022-10-30T09:35:51.263Z,5892.00
2022-10-30T09:36:51.258Z,5948.00
2022-10-30T09:37:51.244Z,5968.00
2022-10-30T09:38:51.234Z,5984.00
2022-10-30T09:39:51.223Z,6012.00
2022-10-30T09:40:51.216Z,6004.00
2022-10-30T09:41:51.260Z,6040.00
2022-10-30T09:42:51.200Z,6148.00
2022-10-30T09:43:51.186Z,6176.00
2022-10-30T09:45:08.127Z,6176.00
2022-10-30T09:45:51.170Z,6176.00
2022-10-30T09:46:51.165Z,6124.00
2022-10-30T09:47:51.151Z,6140.00
2022-10-30T09:48:51.147Z,6336.00
2022-10-30T09:49:51.134Z,6404.00
2022-10-30T09:50:51.132Z,6436.00
2022-10-30T09:51:51.117Z,6456.00
2022-10-30T09:52:51.111Z,6464.00
2022-10-30T09:53:51.101Z,6476.00
2022-10-30T09:54:51.095Z,6472.00
2022-10-30T09:55:51.093Z,6508.00
2022-10-30T09:56:51.079Z,6488.00
2022-10-30T09:57:51.073Z,6504.00
2022-10-30T09:58:51.063Z,6608.00
2022-10-30T09:59:51.057Z,6648.00
2022-10-30T10:00:51.123Z,6680.00
2022-10-30T10:01:51.171Z,6708.00
2022-10-30T10:02:51.134Z,6700.00
2022-10-30T10:04:51.028Z,6784.00
2022-10-30T10:05:51.022Z,6820.00
2022-10-30T10:06:51.012Z,6880.00
2022-10-30T10:07:51.004Z,6944.00
2022-10-30T10:08:50.998Z,6996.00
2022-10-30T10:09:51.019Z,6892.00
2022-10-30T10:10:50.988Z,6772.00
2022-10-30T10:11:50.980Z,6680.00
2022-10-30T10:12:50.981Z,7100.00
2022-10-30T10:13:50.969Z,7124.00
2022-10-30T10:14:51.017Z,7148.00
2022-10-30T10:15:50.957Z,7172.00
2022-10-30T10:16:50.950Z,7164.00
2022-10-30T10:17:50.943Z,7240.00
2022-10-30T10:18:50.938Z,7264.00
2022-10-30T10:19:50.935Z,7216.00
2022-10-30T10:20:50.928Z,7384.00
2022-10-30T10:21:50.922Z,7424.00
2022-10-30T10:22:50.920Z,7464.00
2022-10-30T10:23:50.910Z,7512.00
2022-10-30T10:24:50.904Z,7560.00
2022-10-30T10:25:50.918Z,7596.00
2022-10-30T10:26:50.899Z,7568.00
2022-10-30T10:27:50.892Z,7588.00
2022-10-30T10:28:50.880Z,7644.00
2022-10-30T10:29:50.875Z,7660.00
2022-10-30T10:30:50.869Z,7572.00
2022-10-30T10:31:50.868Z,7700.00
2022-10-30T10:32:50.858Z,7764.00
2022-10-30T10:33:53.676Z,7880.00
2022-10-30T10:34:50.850Z,7964.00
2022-10-30T10:35:50.847Z,8032.00
2022-10-30T10:36:50.844Z,7892.00
2022-10-30T10:37:50.832Z,7712.00
2022-10-30T10:38:50.828Z,7788.00
2022-10-30T10:39:50.825Z,7816.00
2022-10-30T10:40:50.816Z,8056.00
2022-10-30T10:41:53.592Z,8232.00
2022-10-30T10:42:50.804Z,8252.00
2022-10-30T10:43:50.802Z,8248.00
2022-10-30T10:44:50.797Z,8300.00
2022-10-30T10:45:50.791Z,8280.00
2022-10-30T10:46:50.787Z,8276.00
2022-10-30T10:47:50.779Z,8304.00
2022-10-30T10:48:50.775Z,8324.00
2022-10-30T10:49:50.768Z,8500.00
2022-10-30T10:50:50.763Z,8544.00
2022-10-30T10:51:50.760Z,8596.00
2022-10-30T10:52:50.863Z,8656.00
2022-10-30T10:53:50.748Z,8616.00
2022-10-30T10:54:50.740Z,8604.00
2022-10-30T10:55:50.738Z,8480.00
2022-10-30T10:56:50.734Z,8224.00
2022-10-30T10:57:50.730Z,8076.00
2022-10-30T10:58:50.722Z,8084.00
2022-10-30T10:59:50.722Z,8236.00
2022-10-30T11:00:50.716Z,8208.00
2022-10-30T11:01:50.864Z,8228.00
2022-10-30T11:02:50.720Z,8360.00
2022-10-30T11:03:50.702Z,8500.00
2022-10-30T11:04:50.700Z,8516.00
2022-10-30T11:05:50.700Z,8484.00
2022-10-30T11:06:50.693Z,8540.00
2022-10-30T11:07:50.685Z,8552.00
2022-10-30T11:08:50.679Z,8548.00
2022-10-30T11:09:50.675Z,8540.00
2022-10-30T11:10:50.684Z,8432.00
2022-10-30T11:11:50.673Z,8392.00
2022-10-30T11:12:50.659Z,8316.00
2022-10-30T11:13:50.660Z,8392.00
2022-10-30T11:14:50.654Z,8460.00
2022-10-30T11:15:50.657Z,8508.00
2022-10-30T11:16:50.643Z,8420.00
2022-10-30T11:17:50.699Z,8300.00
2022-10-30T11:18:50.676Z,8048.00
2022-10-30T11:19:51.913Z,7984.00
2022-10-30T11:20:58.142Z,8232.00
2022-10-30T11:21:58.297Z,8196.00
2022-10-30T11:23:55.096Z,8704.00
2022-10-30T11:24:55.077Z,8892.00
2022-10-30T11:26:59.550Z,9172.00
2022-10-30T11:27:59.528Z,9204.00
2022-10-30T11:30:03.529Z,8932.00
2022-10-30T11:31:03.518Z,9112.00
2022-10-30T11:33:07.996Z,9284.00
2022-10-30T11:34:07.971Z,9372.00
2022-10-30T11:36:15.637Z,9440.00
2022-10-30T11:37:12.438Z,8144.00
2022-10-30T11:39:16.425Z,9236.00
2022-10-30T11:40:16.409Z,9656.00
2022-10-30T11:42:09.345Z,9772.00
2022-10-30T11:43:09.328Z,9708.00
2022-10-30T11:45:13.478Z,9448.00
2022-10-30T11:46:13.469Z,7412.00
2022-10-30T11:48:18.456Z,8104.00
2022-10-30T11:49:17.473Z,8048.00
2022-10-30T11:51:22.006Z,7696.00
2022-10-30T11:52:21.925Z,7780.00
2022-10-30T11:54:25.954Z,8396.00
2022-10-30T11:55:26.024Z,8532.00
2022-10-30T11:57:29.904Z,9000.00
2022-10-30T11:58:29.882Z,9056.00
2022-10-30T12:00:33.869Z,9164.00
2022-10-30T12:01:33.889Z,8744.00
2022-10-30T12:03:37.861Z,7552.00
2022-10-30T12:04:37.830Z,6872.00
2022-10-30T12:05:37.833Z,7292.00
2022-10-30T12:06:37.821Z,6568.00
2022-10-30T12:07:37.820Z,6384.00
2022-10-30T12:08:37.821Z,6132.00
2022-10-30T12:09:37.813Z,5964.00
2022-10-30T12:10:37.805Z,6352.00
2022-10-30T12:11:37.805Z,6080.00
2022-10-30T12:12:37.800Z,7224.00
2022-10-30T12:13:37.797Z,8744.00
2022-10-30T12:14:37.786Z,8704.00
2022-10-30T12:15:37.782Z,8684.00
2022-10-30T12:16:37.774Z,8376.00
2022-10-30T12:17:37.777Z,7808.00
2022-10-30T12:18:37.770Z,7288.00
2022-10-30T12:19:37.768Z,6552.00
2022-10-30T12:20:37.755Z,6560.00
2022-10-30T12:21:37.753Z,7092.00
2022-10-30T12:22:37.752Z,7504.00
2022-10-30T12:23:37.749Z,7916.00
2022-10-30T12:24:37.742Z,7828.00
2022-10-30T12:25:37.739Z,7640.00
2022-10-30T12:26:37.729Z,7176.00
2022-10-30T12:27:37.722Z,7308.00
2022-10-30T12:28:37.718Z,7168.00
2022-10-30T12:30:02.628Z,7304.00
2022-10-30T12:30:37.710Z,7648.00
2022-10-30T12:31:37.704Z,7660.00
2022-10-30T12:32:39.664Z,7448.00
2022-10-30T12:33:37.697Z,7308.00
2022-10-30T12:34:37.688Z,7520.00
2022-10-30T12:35:37.681Z,6760.00
2022-10-30T12:36:37.676Z,6844.00
2022-10-30T12:37:37.668Z,7032.00
2022-10-30T12:38:37.666Z,7400.00
2022-10-30T12:39:37.664Z,7312.00
2022-10-30T12:40:37.663Z,6852.00
2022-10-30T12:41:37.655Z,7336.00
2022-10-30T12:42:37.647Z,8256.00
2022-10-30T12:43:37.637Z,8688.00
2022-10-30T12:44:37.635Z,9016.00
2022-10-30T12:45:37.630Z,9256.00
2022-10-30T12:46:37.619Z,9988.00
2022-10-30T12:47:37.613Z,10560.00
2022-10-30T12:48:37.611Z,11088.00
2022-10-30T12:49:37.601Z,10868.00
2022-10-30T12:50:37.598Z,11448.00
2022-10-30T12:51:37.592Z,11020.00
2022-10-30T12:52:37.586Z,11020.00
2022-10-30T12:53:37.579Z,11564.00
2022-10-30T12:54:37.573Z,11756.00
2022-10-30T12:55:37.571Z,12184.00
2022-10-30T12:56:37.565Z,12440.00
2022-10-30T12:57:37.559Z,12680.00
2022-10-30T12:58:37.564Z,13000.00
2022-10-30T12:59:37.548Z,13188.00
2022-10-30T13:00:37.543Z,13056.00
2022-10-30T13:01:37.644Z,13192.00
2022-10-30T13:02:37.537Z,13128.00
2022-10-30T13:03:37.543Z,13204.00
2022-10-30T13:04:37.522Z,13164.00
2022-10-30T13:05:37.624Z,13024.00
2022-10-30T13:06:37.512Z,12856.00
2022-10-30T13:07:37.505Z,12792.00
2022-10-30T13:08:37.501Z,12836.00
2022-10-30T13:09:37.496Z,12728.00
2022-10-30T13:10:37.490Z,12680.00
2022-10-30T13:11:37.483Z,12672.00
2022-10-30T13:12:37.488Z,12464.00
2022-10-30T13:13:37.483Z,12268.00
2022-10-30T13:14:37.475Z,12048.00
2022-10-30T13:15:37.464Z,11736.00
2022-10-30T13:16:37.465Z,11408.00
2022-10-30T13:17:37.466Z,10972.00
2022-10-30T13:18:37.457Z,10548.00
2022-10-30T13:19:37.447Z,9992.00
2022-10-30T13:20:37.450Z,9244.00
2022-10-30T13:21:37.471Z,8468.00
2022-10-30T13:22:37.438Z,7664.00
2022-10-30T13:23:37.432Z,6704.00
2022-10-30T13:24:37.487Z,5328.00
2022-10-30T13:25:37.447Z,4804.00
2022-10-30T13:26:37.426Z,4460.00
2022-10-30T13:27:37.421Z,4012.00
2022-10-30T13:28:37.409Z,3688.00
2022-10-30T13:29:37.399Z,3596.00
2022-10-30T13:30:37.396Z,3496.00
2022-10-30T13:31:37.390Z,3348.00
2022-10-30T13:32:37.389Z,3480.00
2022-10-30T13:33:37.383Z,3560.00
2022-10-30T13:34:37.377Z,3404.00
2022-10-30T13:35:37.380Z,3456.00
2022-10-30T13:36:37.421Z,3272.00
2022-10-30T13:37:37.358Z,3040.00
2022-10-30T13:38:37.372Z,2800.00
2022-10-30T13:39:37.354Z,2248.00
2022-10-30T13:40:37.349Z,2224.00
2022-10-30T13:41:37.341Z,2148.00
2022-10-30T13:42:37.339Z,2024.00
2022-10-30T13:43:41.875Z,1872.00
2022-10-30T13:44:37.323Z,1752.00
2022-10-30T13:45:37.320Z,1680.00
2022-10-30T13:46:37.327Z,1488.00
2022-10-30T13:47:37.319Z,1460.00
2022-10-30T13:48:37.307Z,1356.00
2022-10-30T13:49:37.292Z,1316.00
2022-10-30T13:50:37.285Z,1292.00
2022-10-30T13:51:37.285Z,1288.00
2022-10-30T13:52:37.278Z,1244.00
2022-10-30T13:53:37.289Z,1208.00
2022-10-30T13:54:37.261Z,1208.00
2022-10-30T13:55:37.252Z,1236.00
2022-10-30T13:56:37.249Z,1252.00
2022-10-30T13:57:37.238Z,1228.00
2022-10-30T13:58:37.233Z,1216.00
2022-10-30T13:59:37.229Z,1216.00
2022-10-30T14:00:37.220Z,1180.00
2022-10-30T14:01:37.414Z,1152.00
2022-10-30T14:02:37.370Z,1148.00
2022-10-30T14:03:37.195Z,1132.00
2022-10-30T14:04:37.191Z,1124.00
2022-10-30T14:05:37.182Z,1120.00
2022-10-30T14:06:37.174Z,1112.00
2022-10-30T14:07:37.178Z,1124.00
2022-10-30T14:08:37.162Z,1132.00
2022-10-30T14:09:37.145Z,1172.00
2022-10-30T14:10:37.137Z,1212.00
2022-10-30T14:11:37.128Z,1220.00
2022-10-30T14:12:37.118Z,1228.00
2022-10-30T14:13:37.112Z,1248.00
2022-10-30T14:14:37.150Z,1248.00
2022-10-30T14:15:37.847Z,1208.00
2022-10-30T14:16:37.088Z,1204.00
2022-10-30T14:17:37.077Z,1240.00
2022-10-30T14:18:37.082Z,1264.00
2022-10-30T14:19:38.005Z,1240.00
2022-10-30T14:20:44.079Z,1248.00
2022-10-30T14:21:37.848Z,1256.00
2022-10-30T14:22:37.053Z,1304.00
2022-10-30T14:23:37.026Z,1312.00
2022-10-30T14:24:37.006Z,1268.00
2022-10-30T14:25:36.993Z,1256.00
2022-10-30T14:26:36.985Z,1256.00
2022-10-30T14:27:36.976Z,1244.00
2022-10-30T14:28:36.965Z,1236.00
2022-10-30T14:29:37.127Z,1220.00
2022-10-30T14:30:36.952Z,1204.00
2022-10-30T14:31:36.936Z,1180.00
2022-10-30T14:32:37.069Z,1160.00
2022-10-30T14:33:36.917Z,1148.00
2022-10-30T14:34:36.908Z,1136.00
2022-10-30T14:35:37.433Z,1136.00
2022-10-30T14:36:37.066Z,1132.00
2022-10-30T14:37:36.880Z,1112.00
2022-10-30T14:38:36.864Z,1072.00
2022-10-30T14:39:36.852Z,1040.00
2022-10-30T14:40:36.838Z,1016.00
2022-10-30T14:41:36.837Z,1004.00
2022-10-30T14:42:37.020Z,992.00
2022-10-30T14:43:36.840Z,972.00
2022-10-30T14:44:36.803Z,956.00
2022-10-30T14:45:36.790Z,928.00
2022-10-30T14:46:36.781Z,896.00
2022-10-30T14:47:36.772Z,880.00
2022-10-30T14:48:36.756Z,856.00
2022-10-30T14:49:36.743Z,824.00
2022-10-30T14:50:36.734Z,784.00
2022-10-30T14:51:36.723Z,744.00
2022-10-30T14:52:36.768Z,712.00
2022-10-30T14:53:36.721Z,688.00
2022-10-30T14:54:36.693Z,668.00
2022-10-30T14:55:36.698Z,648.00
2022-10-30T14:56:36.680Z,628.00
2022-10-30T14:57:36.658Z,612.00
2022-10-30T14:58:36.652Z,600.00
2022-10-30T14:59:36.640Z,580.00
2022-10-30T15:00:36.635Z,560.00
2022-10-30T15:01:36.790Z,548.00
2022-10-30T15:02:36.867Z,532.00
2022-10-30T15:03:36.594Z,524.00
2022-10-30T15:04:36.581Z,508.00
2022-10-30T15:05:38.102Z,500.00
2022-10-30T15:06:36.558Z,488.00
2022-10-30T15:07:36.831Z,480.00
2022-10-30T15:08:36.796Z,468.00
2022-10-30T15:09:36.524Z,460.00
2022-10-30T15:10:36.578Z,448.00
2022-10-30T15:11:36.560Z,440.00
2022-10-30T15:12:36.564Z,428.00
2022-10-30T15:13:36.487Z,416.00
2022-10-30T15:14:52.637Z,404.00
2022-10-30T15:15:36.462Z,392.00
2022-10-30T15:16:36.444Z,376.00
2022-10-30T15:17:36.469Z,360.00
2022-10-30T15:18:36.939Z,340.00
2022-10-30T15:19:36.405Z,328.00
2022-10-30T15:20:36.399Z,312.00
2022-10-30T15:21:36.473Z,296.00
2022-10-30T15:22:36.763Z,280.00
2022-10-30T15:23:36.545Z,264.00
2022-10-30T15:24:36.358Z,252.00
2022-10-30T15:25:36.342Z,240.00
2022-10-30T15:26:36.328Z,228.00
2022-10-30T15:27:36.324Z,220.00
2022-10-30T15:28:36.311Z,212.00
2022-10-30T15:29:36.292Z,204.00
2022-10-30T15:30:38.429Z,196.00
2022-10-30T15:31:36.732Z,188.00
2022-10-30T15:32:36.256Z,180.00
2022-10-30T15:33:36.248Z,172.00
2022-10-30T15:34:36.287Z,164.00
2022-10-30T15:35:36.219Z,156.00
2022-10-30T15:36:36.206Z,152.00
2022-10-30T15:37:36.231Z,144.00
2022-10-30T15:38:36.187Z,136.00
2022-10-30T15:39:37.049Z,132.00
2022-10-30T15:40:36.159Z,128.00
2022-10-30T15:41:36.149Z,120.00
2022-10-30T15:42:36.137Z,116.00
2022-10-30T15:43:36.123Z,108.00
2022-10-30T15:44:36.119Z,104.00
2022-10-30T15:45:36.110Z,96.00
2022-10-30T15:46:36.089Z,92.00
2022-10-30T15:47:36.086Z,84.00
2022-10-30T15:48:36.063Z,84.00
2022-10-30T15:49:36.079Z,80.00
2022-10-30T15:50:36.038Z,76.00
2022-10-30T15:51:36.024Z,68.00
2022-10-30T15:52:36.013Z,64.00
2022-10-30T15:53:36.009Z,64.00
2022-10-30T15:54:35.992Z,56.00
2022-10-30T15:55:35.978Z,56.00
2022-10-30T15:56:41.158Z,52.00
2022-10-30T15:58:01.515Z,48.00
2022-10-30T15:58:35.937Z,40.00
2022-10-30T15:59:35.948Z,44.00
2022-10-30T16:00:35.916Z,44.00
2022-10-30T16:01:36.032Z,40.00
2022-10-30T16:02:35.932Z,36.00
2022-10-30T16:03:35.878Z,36.00
2022-10-30T16:04:35.875Z,32.00
2022-10-30T16:05:35.900Z,32.00
2022-10-30T16:06:35.839Z,24.00
2022-10-30T16:07:35.827Z,28.00
2022-10-30T16:08:35.899Z,24.00
2022-10-30T16:09:36.523Z,20.00
2022-10-30T16:10:35.815Z,20.00
2022-10-30T16:11:35.788Z,16.00
2022-10-30T16:12:35.822Z,16.00
2022-10-30T16:13:35.756Z,16.00
2022-10-30T16:14:35.751Z,12.00
2022-10-30T16:15:35.776Z,12.00
2022-10-30T16:16:35.809Z,8.00
2022-10-30T16:17:35.706Z,8.00
2022-10-30T16:18:35.718Z,4.00
2022-10-30T16:19:35.679Z,8.00